sensor_id;sensor_type;location;lat;lon;timestamp;P1;durP1;ratioP1;P2;durP2;ratioP2
39540;SDS011;25219;52.244;21.006;2022-12-10T00:00:50;91.90;;;40.83;;
39540;SDS011;25219;52.244;21.006;2022-12-10T00:03:15;95.50;;;40.73;;
39540;SDS011;25219;52.244;21.006;2022-12-10T00:05:41;88.57;;;40.47;;
39540;SDS011;25219;52.244;21.006;2022-12-10T00:08:06;97.30;;;40.92;;
39540;SDS011;25219;52.244;21.006;2022-12-10T00:10:32;90.13;;;40.60;;
39540;SDS011;25219;52.244;21.006;2022-12-10T00:12:57;86.43;;;39.28;;
39540;SDS011;25219;52.244;21.006;2022-12-10T00:15:24;87.20;;;39.72;;
39540;SDS011;25219;52.244;21.006;2022-12-10T00:17:50;90.40;;;38.90;;
39540;SDS011;25219;52.244;21.006;2022-12-10T00:20:15;84.60;;;38.30;;
39540;SDS011;25219;52.244;21.006;2022-12-10T00:22:40;91.70;;;40.15;;
39540;SDS011;25219;52.244;21.006;2022-12-10T00:25:05;89.97;;;40.17;;
39540;SDS011;25219;52.244;21.006;2022-12-10T00:27:31;82.10;;;38.25;;
39540;SDS011;25219;52.244;21.006;2022-12-10T00:29:56;88.05;;;38.35;;
39540;SDS011;25219;52.244;21.006;2022-12-10T00:32:21;86.78;;;38.92;;
39540;SDS011;25219;52.244;21.006;2022-12-10T00:34:47;95.35;;;39.50;;
39540;SDS011;25219;52.244;21.006;2022-12-10T00:37:12;88.83;;;38.63;;
39540;SDS011;25219;52.244;21.006;2022-12-10T00:39:37;97.03;;;40.03;;
39540;SDS011;25219;52.244;21.006;2022-12-10T00:42:03;94.65;;;42.03;;
39540;SDS011;25219;52.244;21.006;2022-12-10T00:44:29;89.15;;;39.83;;
39540;SDS011;25219;52.244;21.006;2022-12-10T00:46:54;85.88;;;38.00;;
39540;SDS011;25219;52.244;21.006;2022-12-10T00:49:20;86.82;;;40.80;;
39540;SDS011;25219;52.244;21.006;2022-12-10T00:51:48;87.60;;;39.17;;
39540;SDS011;25219;52.244;21.006;2022-12-10T00:54:13;96.25;;;40.75;;
39540;SDS011;25219;52.244;21.006;2022-12-10T00:56:38;90.07;;;39.58;;
39540;SDS011;25219;52.244;21.006;2022-12-10T00:59:03;80.63;;;37.95;;
39540;SDS011;25219;52.244;21.006;2022-12-10T01:01:30;91.55;;;40.35;;
39540;SDS011;25219;52.244;21.006;2022-12-10T01:03:57;95.97;;;40.03;;
39540;SDS011;25219;52.244;21.006;2022-12-10T01:06:30;93.30;;;39.83;;
39540;SDS011;25219;52.244;21.006;2022-12-10T01:08:57;89.32;;;39.15;;
39540;SDS011;25219;52.244;21.006;2022-12-10T01:11:24;93.07;;;40.83;;
39540;SDS011;25219;52.244;21.006;2022-12-10T01:13:51;95.60;;;40.08;;
39540;SDS011;25219;52.244;21.006;2022-12-10T01:16:18;87.47;;;38.70;;
39540;SDS011;25219;52.244;21.006;2022-12-10T01:18:43;95.45;;;39.67;;
39540;SDS011;25219;52.244;21.006;2022-12-10T01:21:10;91.45;;;39.42;;
39540;SDS011;25219;52.244;21.006;2022-12-10T01:23:36;96.28;;;40.45;;
39540;SDS011;25219;52.244;21.006;2022-12-10T01:26:03;93.22;;;39.72;;
39540;SDS011;25219;52.244;21.006;2022-12-10T01:28:29;93.68;;;39.38;;
39540;SDS011;25219;52.244;21.006;2022-12-10T01:30:55;80.80;;;37.75;;
39540;SDS011;25219;52.244;21.006;2022-12-10T01:33:20;93.63;;;39.90;;
39540;SDS011;25219;52.244;21.006;2022-12-10T01:35:45;90.28;;;40.25;;
39540;SDS011;25219;52.244;21.006;2022-12-10T01:38:11;87.00;;;37.47;;
39540;SDS011;25219;52.244;21.006;2022-12-10T01:40:37;84.80;;;38.17;;
39540;SDS011;25219;52.244;21.006;2022-12-10T01:43:02;90.63;;;39.28;;
39540;SDS011;25219;52.244;21.006;2022-12-10T01:45:27;87.93;;;37.72;;
39540;SDS011;25219;52.244;21.006;2022-12-10T01:47:53;88.00;;;37.58;;
39540;SDS011;25219;52.244;21.006;2022-12-10T01:50:18;90.28;;;39.00;;
39540;SDS011;25219;52.244;21.006;2022-12-10T01:52:44;97.15;;;39.08;;
39540;SDS011;25219;52.244;21.006;2022-12-10T01:55:35;90.43;;;38.90;;
39540;SDS011;25219;52.244;21.006;2022-12-10T01:57:55;87.70;;;36.75;;
39540;SDS011;25219;52.244;21.006;2022-12-10T02:00:21;88.43;;;36.08;;
39540;SDS011;25219;52.244;21.006;2022-12-10T02:02:48;84.20;;;36.28;;
39540;SDS011;25219;52.244;21.006;2022-12-10T02:08:31;80.93;;;35.30;;
39540;SDS011;25219;52.244;21.006;2022-12-10T02:13:32;85.07;;;35.92;;
39540;SDS011;25219;52.244;21.006;2022-12-10T02:18:26;75.88;;;33.10;;
39540;SDS011;25219;52.244;21.006;2022-12-10T02:20:54;88.15;;;35.63;;
39540;SDS011;25219;52.244;21.006;2022-12-10T02:25:52;79.63;;;32.35;;
39540;SDS011;25219;52.244;21.006;2022-12-10T02:30:45;80.07;;;31.85;;
39540;SDS011;25219;52.244;21.006;2022-12-10T02:33:12;77.00;;;32.72;;
39540;SDS011;25219;52.244;21.006;2022-12-10T02:35:38;77.50;;;33.95;;
39540;SDS011;25219;52.244;21.006;2022-12-10T02:38:13;78.40;;;34.60;;
39540;SDS011;25219;52.244;21.006;2022-12-10T02:40:41;73.60;;;32.47;;
39540;SDS011;25219;52.244;21.006;2022-12-10T02:43:09;74.72;;;31.77;;
39540;SDS011;25219;52.244;21.006;2022-12-10T02:45:35;74.55;;;31.02;;
39540;SDS011;25219;52.244;21.006;2022-12-10T02:48:01;71.38;;;30.30;;
39540;SDS011;25219;52.244;21.006;2022-12-10T02:50:27;73.50;;;31.70;;
39540;SDS011;25219;52.244;21.006;2022-12-10T02:52:53;73.88;;;32.08;;
39540;SDS011;25219;52.244;21.006;2022-12-10T02:55:18;68.63;;;30.40;;
39540;SDS011;25219;52.244;21.006;2022-12-10T03:00:28;66.32;;;29.98;;
39540;SDS011;25219;52.244;21.006;2022-12-10T03:05:48;67.88;;;28.67;;
39540;SDS011;25219;52.244;21.006;2022-12-10T03:08:18;68.57;;;28.30;;
39540;SDS011;25219;52.244;21.006;2022-12-10T03:10:48;63.17;;;27.60;;
39540;SDS011;25219;52.244;21.006;2022-12-10T03:13:16;69.05;;;29.23;;
39540;SDS011;25219;52.244;21.006;2022-12-10T03:15:42;60.40;;;27.25;;
39540;SDS011;25219;52.244;21.006;2022-12-10T03:18:08;61.60;;;28.73;;
39540;SDS011;25219;52.244;21.006;2022-12-10T03:20:37;68.18;;;30.10;;
39540;SDS011;25219;52.244;21.006;2022-12-10T03:23:02;72.20;;;30.20;;
39540;SDS011;25219;52.244;21.006;2022-12-10T03:25:28;69.15;;;30.13;;
39540;SDS011;25219;52.244;21.006;2022-12-10T03:27:55;77.20;;;31.13;;
39540;SDS011;25219;52.244;21.006;2022-12-10T03:30:22;76.47;;;29.92;;
39540;SDS011;25219;52.244;21.006;2022-12-10T03:32:47;75.05;;;30.05;;
39540;SDS011;25219;52.244;21.006;2022-12-10T03:35:13;64.82;;;27.67;;
39540;SDS011;25219;52.244;21.006;2022-12-10T03:37:39;66.22;;;27.48;;
39540;SDS011;25219;52.244;21.006;2022-12-10T03:40:05;60.80;;;26.98;;
39540;SDS011;25219;52.244;21.006;2022-12-10T03:42:31;66.07;;;27.40;;
39540;SDS011;25219;52.244;21.006;2022-12-10T03:44:56;62.63;;;26.23;;
39540;SDS011;25219;52.244;21.006;2022-12-10T03:47:23;59.30;;;27.38;;
39540;SDS011;25219;52.244;21.006;2022-12-10T03:49:49;62.08;;;26.90;;
39540;SDS011;25219;52.244;21.006;2022-12-10T03:52:14;64.75;;;26.63;;
39540;SDS011;25219;52.244;21.006;2022-12-10T03:54:39;64.00;;;27.63;;
39540;SDS011;25219;52.244;21.006;2022-12-10T03:57:05;67.90;;;28.45;;
39540;SDS011;25219;52.244;21.006;2022-12-10T03:59:30;62.88;;;27.02;;
39540;SDS011;25219;52.244;21.006;2022-12-10T04:01:55;59.33;;;26.07;;
39540;SDS011;25219;52.244;21.006;2022-12-10T04:04:21;63.70;;;27.13;;
39540;SDS011;25219;52.244;21.006;2022-12-10T04:06:46;63.53;;;26.52;;
39540;SDS011;25219;52.244;21.006;2022-12-10T04:09:12;62.40;;;26.63;;
39540;SDS011;25219;52.244;21.006;2022-12-10T04:11:39;64.80;;;27.40;;
39540;SDS011;25219;52.244;21.006;2022-12-10T04:14:04;63.80;;;26.00;;
39540;SDS011;25219;52.244;21.006;2022-12-10T04:16:48;61.03;;;25.55;;
39540;SDS011;25219;52.244;21.006;2022-12-10T04:19:16;64.43;;;27.08;;
39540;SDS011;25219;52.244;21.006;2022-12-10T04:21:42;63.78;;;27.35;;
39540;SDS011;25219;52.244;21.006;2022-12-10T04:24:27;65.25;;;27.25;;
39540;SDS011;25219;52.244;21.006;2022-12-10T04:27:12;62.25;;;26.35;;
39540;SDS011;25219;52.244;21.006;2022-12-10T04:29:38;68.22;;;27.15;;
39540;SDS011;25219;52.244;21.006;2022-12-10T04:32:04;68.13;;;27.38;;
39540;SDS011;25219;52.244;21.006;2022-12-10T04:34:29;64.10;;;27.88;;
39540;SDS011;25219;52.244;21.006;2022-12-10T04:36:54;68.53;;;27.95;;
39540;SDS011;25219;52.244;21.006;2022-12-10T04:39:20;65.10;;;27.48;;
39540;SDS011;25219;52.244;21.006;2022-12-10T04:41:46;65.90;;;27.05;;
39540;SDS011;25219;52.244;21.006;2022-12-10T04:44:12;71.30;;;27.40;;
39540;SDS011;25219;52.244;21.006;2022-12-10T04:46:37;63.05;;;26.60;;
39540;SDS011;25219;52.244;21.006;2022-12-10T04:49:03;58.13;;;25.73;;
39540;SDS011;25219;52.244;21.006;2022-12-10T04:51:28;62.60;;;25.70;;
39540;SDS011;25219;52.244;21.006;2022-12-10T04:53:54;63.92;;;25.67;;
39540;SDS011;25219;52.244;21.006;2022-12-10T04:56:19;62.97;;;26.35;;
39540;SDS011;25219;52.244;21.006;2022-12-10T04:58:45;64.07;;;25.35;;
39540;SDS011;25219;52.244;21.006;2022-12-10T05:01:10;54.08;;;23.52;;
39540;SDS011;25219;52.244;21.006;2022-12-10T05:03:36;54.22;;;23.85;;
39540;SDS011;25219;52.244;21.006;2022-12-10T05:06:02;62.78;;;24.38;;
39540;SDS011;25219;52.244;21.006;2022-12-10T05:08:28;61.50;;;25.42;;
39540;SDS011;25219;52.244;21.006;2022-12-10T05:10:54;60.08;;;24.67;;
39540;SDS011;25219;52.244;21.006;2022-12-10T05:13:19;54.85;;;23.48;;
39540;SDS011;25219;52.244;21.006;2022-12-10T05:15:45;54.27;;;22.97;;
39540;SDS011;25219;52.244;21.006;2022-12-10T05:18:10;60.72;;;23.50;;
39540;SDS011;25219;52.244;21.006;2022-12-10T05:20:35;57.07;;;23.10;;
39540;SDS011;25219;52.244;21.006;2022-12-10T05:23:01;52.53;;;21.30;;
39540;SDS011;25219;52.244;21.006;2022-12-10T05:25:45;43.65;;;19.83;;
39540;SDS011;25219;52.244;21.006;2022-12-10T05:28:20;48.70;;;21.30;;
39540;SDS011;25219;52.244;21.006;2022-12-10T05:30:45;48.63;;;20.13;;
39540;SDS011;25219;52.244;21.006;2022-12-10T05:33:10;48.17;;;19.07;;
39540;SDS011;25219;52.244;21.006;2022-12-10T05:35:36;54.47;;;21.77;;
39540;SDS011;25219;52.244;21.006;2022-12-10T05:38:01;56.70;;;21.85;;
39540;SDS011;25219;52.244;21.006;2022-12-10T05:40:26;56.30;;;22.63;;
39540;SDS011;25219;52.244;21.006;2022-12-10T05:42:52;52.42;;;20.98;;
39540;SDS011;25219;52.244;21.006;2022-12-10T05:45:17;52.53;;;23.17;;
39540;SDS011;25219;52.244;21.006;2022-12-10T05:47:42;50.20;;;20.77;;
39540;SDS011;25219;52.244;21.006;2022-12-10T05:50:07;50.08;;;21.02;;
39540;SDS011;25219;52.244;21.006;2022-12-10T05:52:33;47.45;;;19.88;;
39540;SDS011;25219;52.244;21.006;2022-12-10T05:54:58;47.63;;;18.95;;
39540;SDS011;25219;52.244;21.006;2022-12-10T05:57:23;42.70;;;17.13;;
39540;SDS011;25219;52.244;21.006;2022-12-10T05:59:49;43.90;;;17.88;;
39540;SDS011;25219;52.244;21.006;2022-12-10T06:02:14;42.97;;;17.35;;
39540;SDS011;25219;52.244;21.006;2022-12-10T06:04:39;43.25;;;19.08;;
39540;SDS011;25219;52.244;21.006;2022-12-10T06:07:04;50.00;;;18.70;;
39540;SDS011;25219;52.244;21.006;2022-12-10T06:09:30;50.67;;;19.98;;
39540;SDS011;25219;52.244;21.006;2022-12-10T06:11:55;49.65;;;20.05;;
39540;SDS011;25219;52.244;21.006;2022-12-10T06:14:20;52.13;;;21.40;;
39540;SDS011;25219;52.244;21.006;2022-12-10T06:16:45;48.70;;;20.17;;
39540;SDS011;25219;52.244;21.006;2022-12-10T06:19:10;56.20;;;22.05;;
39540;SDS011;25219;52.244;21.006;2022-12-10T06:21:37;55.72;;;20.52;;
39540;SDS011;25219;52.244;21.006;2022-12-10T06:24:02;49.25;;;20.75;;
39540;SDS011;25219;52.244;21.006;2022-12-10T06:26:28;53.60;;;19.70;;
39540;SDS011;25219;52.244;21.006;2022-12-10T06:28:54;56.75;;;21.40;;
39540;SDS011;25219;52.244;21.006;2022-12-10T06:31:19;53.30;;;21.33;;
39540;SDS011;25219;52.244;21.006;2022-12-10T06:33:45;50.20;;;19.98;;
39540;SDS011;25219;52.244;21.006;2022-12-10T06:36:11;51.72;;;20.52;;
39540;SDS011;25219;52.244;21.006;2022-12-10T06:38:37;48.55;;;20.00;;
39540;SDS011;25219;52.244;21.006;2022-12-10T06:41:06;50.40;;;20.45;;
39540;SDS011;25219;52.244;21.006;2022-12-10T06:43:32;50.83;;;20.15;;
39540;SDS011;25219;52.244;21.006;2022-12-10T06:45:57;47.22;;;19.75;;
39540;SDS011;25219;52.244;21.006;2022-12-10T06:48:23;49.00;;;19.63;;
39540;SDS011;25219;52.244;21.006;2022-12-10T06:50:48;52.33;;;19.70;;
39540;SDS011;25219;52.244;21.006;2022-12-10T06:53:13;52.35;;;20.73;;
39540;SDS011;25219;52.244;21.006;2022-12-10T06:55:38;61.20;;;21.50;;
39540;SDS011;25219;52.244;21.006;2022-12-10T06:58:03;50.93;;;20.27;;
39540;SDS011;25219;52.244;21.006;2022-12-10T07:00:29;54.78;;;21.30;;
39540;SDS011;25219;52.244;21.006;2022-12-10T07:02:54;54.40;;;21.63;;
39540;SDS011;25219;52.244;21.006;2022-12-10T07:05:19;51.63;;;19.77;;
39540;SDS011;25219;52.244;21.006;2022-12-10T07:07:45;64.32;;;21.98;;
39540;SDS011;25219;52.244;21.006;2022-12-10T07:10:10;60.67;;;21.40;;
39540;SDS011;25219;52.244;21.006;2022-12-10T07:12:36;60.05;;;20.30;;
39540;SDS011;25219;52.244;21.006;2022-12-10T07:15:01;50.97;;;18.93;;
39540;SDS011;25219;52.244;21.006;2022-12-10T07:17:27;61.35;;;22.23;;
39540;SDS011;25219;52.244;21.006;2022-12-10T07:19:53;60.63;;;21.52;;
39540;SDS011;25219;52.244;21.006;2022-12-10T07:22:18;59.17;;;20.13;;
39540;SDS011;25219;52.244;21.006;2022-12-10T07:24:43;52.58;;;18.70;;
39540;SDS011;25219;52.244;21.006;2022-12-10T07:27:12;54.67;;;19.00;;
39540;SDS011;25219;52.244;21.006;2022-12-10T07:29:37;54.08;;;20.10;;
39540;SDS011;25219;52.244;21.006;2022-12-10T07:32:04;52.20;;;20.57;;
39540;SDS011;25219;52.244;21.006;2022-12-10T07:34:29;57.13;;;20.92;;
39540;SDS011;25219;52.244;21.006;2022-12-10T07:36:55;54.37;;;20.63;;
39540;SDS011;25219;52.244;21.006;2022-12-10T07:39:22;58.50;;;22.15;;
39540;SDS011;25219;52.244;21.006;2022-12-10T07:41:48;53.13;;;19.70;;
39540;SDS011;25219;52.244;21.006;2022-12-10T07:44:17;55.63;;;20.08;;
39540;SDS011;25219;52.244;21.006;2022-12-10T07:46:44;55.67;;;20.77;;
39540;SDS011;25219;52.244;21.006;2022-12-10T07:49:09;54.30;;;20.55;;
39540;SDS011;25219;52.244;21.006;2022-12-10T07:51:35;49.20;;;19.42;;
39540;SDS011;25219;52.244;21.006;2022-12-10T07:54:00;52.90;;;19.55;;
39540;SDS011;25219;52.244;21.006;2022-12-10T07:56:25;54.03;;;21.27;;
39540;SDS011;25219;52.244;21.006;2022-12-10T07:58:51;57.85;;;21.27;;
39540;SDS011;25219;52.244;21.006;2022-12-10T08:01:17;53.53;;;20.02;;
39540;SDS011;25219;52.244;21.006;2022-12-10T08:03:43;57.53;;;20.48;;
39540;SDS011;25219;52.244;21.006;2022-12-10T08:06:09;51.20;;;20.52;;
39540;SDS011;25219;52.244;21.006;2022-12-10T08:08:37;50.85;;;21.20;;
39540;SDS011;25219;52.244;21.006;2022-12-10T08:11:03;55.50;;;20.60;;
39540;SDS011;25219;52.244;21.006;2022-12-10T08:13:28;58.45;;;20.67;;
39540;SDS011;25219;52.244;21.006;2022-12-10T08:15:54;57.85;;;20.85;;
39540;SDS011;25219;52.244;21.006;2022-12-10T08:18:20;51.00;;;21.23;;
39540;SDS011;25219;52.244;21.006;2022-12-10T08:20:46;54.97;;;18.70;;
39540;SDS011;25219;52.244;21.006;2022-12-10T08:23:11;52.83;;;19.10;;
39540;SDS011;25219;52.244;21.006;2022-12-10T08:25:36;53.50;;;19.80;;
39540;SDS011;25219;52.244;21.006;2022-12-10T08:28:02;55.47;;;19.90;;
39540;SDS011;25219;52.244;21.006;2022-12-10T08:30:28;50.28;;;19.98;;
39540;SDS011;25219;52.244;21.006;2022-12-10T08:32:54;53.42;;;20.65;;
39540;SDS011;25219;52.244;21.006;2022-12-10T08:35:19;49.50;;;18.30;;
39540;SDS011;25219;52.244;21.006;2022-12-10T08:37:44;58.00;;;19.60;;
39540;SDS011;25219;52.244;21.006;2022-12-10T08:40:10;48.95;;;18.00;;
39540;SDS011;25219;52.244;21.006;2022-12-10T08:42:35;50.58;;;17.75;;
39540;SDS011;25219;52.244;21.006;2022-12-10T08:45:01;50.85;;;19.45;;
39540;SDS011;25219;52.244;21.006;2022-12-10T08:47:26;47.78;;;17.58;;
39540;SDS011;25219;52.244;21.006;2022-12-10T08:49:51;41.28;;;16.60;;
39540;SDS011;25219;52.244;21.006;2022-12-10T08:52:17;46.13;;;19.13;;
39540;SDS011;25219;52.244;21.006;2022-12-10T08:54:42;48.40;;;17.23;;
39540;SDS011;25219;52.244;21.006;2022-12-10T08:57:07;48.33;;;17.00;;
39540;SDS011;25219;52.244;21.006;2022-12-10T08:59:32;47.93;;;17.07;;
39540;SDS011;25219;52.244;21.006;2022-12-10T09:01:57;42.73;;;16.20;;
39540;SDS011;25219;52.244;21.006;2022-12-10T09:04:23;47.20;;;17.45;;
39540;SDS011;25219;52.244;21.006;2022-12-10T09:06:48;45.22;;;15.80;;
39540;SDS011;25219;52.244;21.006;2022-12-10T09:09:13;45.30;;;16.67;;
39540;SDS011;25219;52.244;21.006;2022-12-10T09:11:38;51.05;;;16.58;;
39540;SDS011;25219;52.244;21.006;2022-12-10T09:14:04;45.50;;;16.33;;
39540;SDS011;25219;52.244;21.006;2022-12-10T09:16:30;43.23;;;15.50;;
39540;SDS011;25219;52.244;21.006;2022-12-10T09:18:56;47.17;;;17.15;;
39540;SDS011;25219;52.244;21.006;2022-12-10T09:21:21;40.03;;;16.67;;
39540;SDS011;25219;52.244;21.006;2022-12-10T09:23:46;46.10;;;17.17;;
39540;SDS011;25219;52.244;21.006;2022-12-10T09:26:13;41.60;;;17.15;;
39540;SDS011;25219;52.244;21.006;2022-12-10T09:28:39;43.30;;;16.75;;
39540;SDS011;25219;52.244;21.006;2022-12-10T09:31:04;46.72;;;17.27;;
39540;SDS011;25219;52.244;21.006;2022-12-10T09:33:30;41.47;;;16.45;;
39540;SDS011;25219;52.244;21.006;2022-12-10T09:35:56;40.20;;;16.20;;
39540;SDS011;25219;52.244;21.006;2022-12-10T09:38:21;48.72;;;16.55;;
39540;SDS011;25219;52.244;21.006;2022-12-10T09:48:21;46.15;;;17.15;;
39540;SDS011;25219;52.244;21.006;2022-12-10T09:50:53;50.55;;;17.10;;
39540;SDS011;25219;52.244;21.006;2022-12-10T09:53:20;45.75;;;18.83;;
39540;SDS011;25219;52.244;21.006;2022-12-10T09:55:46;44.30;;;17.25;;
39540;SDS011;25219;52.244;21.006;2022-12-10T09:58:18;48.90;;;17.40;;
39540;SDS011;25219;52.244;21.006;2022-12-10T10:00:46;45.28;;;18.17;;
39540;SDS011;25219;52.244;21.006;2022-12-10T10:03:13;52.00;;;17.77;;
39540;SDS011;25219;52.244;21.006;2022-12-10T10:05:48;49.35;;;17.98;;
39540;SDS011;25219;52.244;21.006;2022-12-10T10:10:48;47.22;;;17.70;;
39540;SDS011;25219;52.244;21.006;2022-12-10T10:15:40;46.83;;;18.38;;
39540;SDS011;25219;52.244;21.006;2022-12-10T10:20:50;44.65;;;17.63;;
39540;SDS011;25219;52.244;21.006;2022-12-10T10:23:15;47.17;;;16.65;;
39540;SDS011;25219;52.244;21.006;2022-12-10T10:25:41;51.53;;;18.88;;
39540;SDS011;25219;52.244;21.006;2022-12-10T10:28:09;42.00;;;17.65;;
39540;SDS011;25219;52.244;21.006;2022-12-10T10:30:35;45.10;;;16.77;;
39540;SDS011;25219;52.244;21.006;2022-12-10T10:33:01;45.67;;;17.52;;
39540;SDS011;25219;52.244;21.006;2022-12-10T10:35:32;47.20;;;17.67;;
39540;SDS011;25219;52.244;21.006;2022-12-10T10:37:59;40.17;;;16.88;;
39540;SDS011;25219;52.244;21.006;2022-12-10T10:40:26;40.40;;;16.60;;
39540;SDS011;25219;52.244;21.006;2022-12-10T10:42:54;39.10;;;15.60;;
39540;SDS011;25219;52.244;21.006;2022-12-10T10:45:35;46.30;;;16.38;;
39540;SDS011;25219;52.244;21.006;2022-12-10T10:50:26;44.97;;;16.50;;
39540;SDS011;25219;52.244;21.006;2022-12-10T10:55:44;46.92;;;17.30;;
39540;SDS011;25219;52.244;21.006;2022-12-10T10:58:16;44.45;;;16.83;;
39540;SDS011;25219;52.244;21.006;2022-12-10T11:03:49;44.78;;;17.13;;
39540;SDS011;25219;52.244;21.006;2022-12-10T11:06:14;43.40;;;17.58;;
39540;SDS011;25219;52.244;21.006;2022-12-10T11:08:41;47.55;;;17.27;;
39540;SDS011;25219;52.244;21.006;2022-12-10T11:11:12;42.00;;;17.05;;
39540;SDS011;25219;52.244;21.006;2022-12-10T11:13:37;46.20;;;17.05;;
39540;SDS011;25219;52.244;21.006;2022-12-10T11:18:39;48.25;;;17.73;;
39540;SDS011;25219;52.244;21.006;2022-12-10T11:23:31;47.88;;;18.05;;
39540;SDS011;25219;52.244;21.006;2022-12-10T11:26:00;44.45;;;17.42;;
39540;SDS011;25219;52.244;21.006;2022-12-10T11:36:32;52.55;;;18.83;;
39540;SDS011;25219;52.244;21.006;2022-12-10T11:41:29;53.33;;;18.45;;
39540;SDS011;25219;52.244;21.006;2022-12-10T11:51:40;61.58;;;20.85;;
39540;SDS011;25219;52.244;21.006;2022-12-10T11:54:14;50.40;;;20.08;;
39540;SDS011;25219;52.244;21.006;2022-12-10T11:56:43;70.55;;;19.90;;
39540;SDS011;25219;52.244;21.006;2022-12-10T12:06:59;52.85;;;17.55;;
39540;SDS011;25219;52.244;21.006;2022-12-10T12:15:08;48.10;;;17.40;;
39540;SDS011;25219;52.244;21.006;2022-12-10T12:19:47;48.60;;;18.40;;
39540;SDS011;25219;52.244;21.006;2022-12-10T12:22:25;48.22;;;16.75;;
39540;SDS011;25219;52.244;21.006;2022-12-10T12:24:53;46.40;;;16.90;;
39540;SDS011;25219;52.244;21.006;2022-12-10T12:29:46;49.23;;;17.60;;
39540;SDS011;25219;52.244;21.006;2022-12-10T12:32:24;61.58;;;19.25;;
39540;SDS011;25219;52.244;21.006;2022-12-10T12:34:52;48.17;;;17.70;;
39540;SDS011;25219;52.244;21.006;2022-12-10T12:37:25;47.08;;;17.60;;
39540;SDS011;25219;52.244;21.006;2022-12-10T12:40:03;46.58;;;17.40;;
39540;SDS011;25219;52.244;21.006;2022-12-10T12:42:53;47.05;;;16.60;;
39540;SDS011;25219;52.244;21.006;2022-12-10T12:45:20;51.30;;;18.45;;
39540;SDS011;25219;52.244;21.006;2022-12-10T12:52:49;52.00;;;18.52;;
39540;SDS011;25219;52.244;21.006;2022-12-10T12:55:17;52.03;;;18.13;;
39540;SDS011;25219;52.244;21.006;2022-12-10T12:57:46;51.08;;;17.80;;
39540;SDS011;25219;52.244;21.006;2022-12-10T13:00:17;49.33;;;17.95;;
39540;SDS011;25219;52.244;21.006;2022-12-10T13:05:31;53.10;;;16.97;;
39540;SDS011;25219;52.244;21.006;2022-12-10T13:13:17;45.75;;;17.40;;
39540;SDS011;25219;52.244;21.006;2022-12-10T13:15:46;40.88;;;16.75;;
39540;SDS011;25219;52.244;21.006;2022-12-10T13:20:41;38.97;;;17.02;;
39540;SDS011;25219;52.244;21.006;2022-12-10T13:23:29;41.85;;;16.25;;
39540;SDS011;25219;52.244;21.006;2022-12-10T13:30:49;45.53;;;17.93;;
39540;SDS011;25219;52.244;21.006;2022-12-10T13:33:45;51.53;;;19.02;;
39540;SDS011;25219;52.244;21.006;2022-12-10T13:36:10;47.20;;;17.17;;
39540;SDS011;25219;52.244;21.006;2022-12-10T13:38:39;40.70;;;18.03;;
39540;SDS011;25219;52.244;21.006;2022-12-10T13:41:06;48.75;;;19.48;;
39540;SDS011;25219;52.244;21.006;2022-12-10T13:44:00;52.70;;;20.67;;
39540;SDS011;25219;52.244;21.006;2022-12-10T13:49:23;47.88;;;19.60;;
39540;SDS011;25219;52.244;21.006;2022-12-10T14:04:15;40.97;;;18.15;;
39540;SDS011;25219;52.244;21.006;2022-12-10T14:06:43;45.88;;;19.13;;
39540;SDS011;25219;52.244;21.006;2022-12-10T14:09:11;42.80;;;18.98;;
39540;SDS011;25219;52.244;21.006;2022-12-10T14:11:48;46.42;;;18.58;;
39540;SDS011;25219;52.244;21.006;2022-12-10T14:14:38;43.35;;;17.80;;
39540;SDS011;25219;52.244;21.006;2022-12-10T14:17:02;42.75;;;19.40;;
39540;SDS011;25219;52.244;21.006;2022-12-10T14:19:29;47.20;;;18.70;;
39540;SDS011;25219;52.244;21.006;2022-12-10T14:21:54;49.30;;;20.20;;
39540;SDS011;25219;52.244;21.006;2022-12-10T14:24:30;44.13;;;18.77;;
39540;SDS011;25219;52.244;21.006;2022-12-10T14:27:00;44.45;;;18.88;;
39540;SDS011;25219;52.244;21.006;2022-12-10T14:29:26;44.17;;;18.93;;
39540;SDS011;25219;52.244;21.006;2022-12-10T14:31:51;43.75;;;18.35;;
39540;SDS011;25219;52.244;21.006;2022-12-10T14:34:24;39.03;;;17.30;;
39540;SDS011;25219;52.244;21.006;2022-12-10T14:36:51;40.15;;;16.80;;
39540;SDS011;25219;52.244;21.006;2022-12-10T14:39:21;42.05;;;17.90;;
39540;SDS011;25219;52.244;21.006;2022-12-10T14:41:47;39.60;;;17.55;;
39540;SDS011;25219;52.244;21.006;2022-12-10T14:44:14;38.80;;;16.83;;
39540;SDS011;25219;52.244;21.006;2022-12-10T14:46:40;39.58;;;18.65;;
39540;SDS011;25219;52.244;21.006;2022-12-10T14:49:06;35.15;;;17.25;;
39540;SDS011;25219;52.244;21.006;2022-12-10T14:51:33;43.83;;;19.35;;
39540;SDS011;25219;52.244;21.006;2022-12-10T14:54:01;40.47;;;18.63;;
39540;SDS011;25219;52.244;21.006;2022-12-10T14:58:54;39.70;;;18.75;;
39540;SDS011;25219;52.244;21.006;2022-12-10T15:03:47;38.20;;;18.42;;
39540;SDS011;25219;52.244;21.006;2022-12-10T15:06:13;41.92;;;18.92;;
39540;SDS011;25219;52.244;21.006;2022-12-10T15:08:41;47.63;;;19.85;;
39540;SDS011;25219;52.244;21.006;2022-12-10T15:11:07;40.28;;;19.10;;
39540;SDS011;25219;52.244;21.006;2022-12-10T15:13:42;43.28;;;19.65;;
39540;SDS011;25219;52.244;21.006;2022-12-10T15:16:16;46.55;;;19.67;;
39540;SDS011;25219;52.244;21.006;2022-12-10T15:18:42;41.28;;;19.88;;
39540;SDS011;25219;52.244;21.006;2022-12-10T15:21:41;44.35;;;20.75;;
39540;SDS011;25219;52.244;21.006;2022-12-10T15:24:17;41.78;;;19.58;;
39540;SDS011;25219;52.244;21.006;2022-12-10T15:26:44;40.00;;;19.02;;
39540;SDS011;25219;52.244;21.006;2022-12-10T15:31:49;41.88;;;19.70;;
39540;SDS011;25219;52.244;21.006;2022-12-10T15:34:15;48.60;;;20.10;;
39540;SDS011;25219;52.244;21.006;2022-12-10T15:36:43;40.80;;;17.90;;
39540;SDS011;25219;52.244;21.006;2022-12-10T15:39:20;36.67;;;18.75;;
39540;SDS011;25219;52.244;21.006;2022-12-10T15:44:18;39.58;;;18.75;;
39540;SDS011;25219;52.244;21.006;2022-12-10T15:46:47;37.80;;;18.85;;
39540;SDS011;25219;52.244;21.006;2022-12-10T15:49:12;40.13;;;19.52;;
39540;SDS011;25219;52.244;21.006;2022-12-10T15:51:37;39.10;;;18.70;;
39540;SDS011;25219;52.244;21.006;2022-12-10T15:54:12;40.88;;;19.75;;
39540;SDS011;25219;52.244;21.006;2022-12-10T15:56:37;40.38;;;20.02;;
39540;SDS011;25219;52.244;21.006;2022-12-10T15:59:03;39.08;;;19.25;;
39540;SDS011;25219;52.244;21.006;2022-12-10T16:01:28;41.40;;;19.40;;
39540;SDS011;25219;52.244;21.006;2022-12-10T16:03:53;42.15;;;20.05;;
39540;SDS011;25219;52.244;21.006;2022-12-10T16:06:18;37.53;;;18.75;;
39540;SDS011;25219;52.244;21.006;2022-12-10T16:08:44;41.33;;;19.50;;
39540;SDS011;25219;52.244;21.006;2022-12-10T16:11:15;37.03;;;19.08;;
39540;SDS011;25219;52.244;21.006;2022-12-10T16:13:40;40.67;;;19.33;;
39540;SDS011;25219;52.244;21.006;2022-12-10T16:16:09;40.50;;;18.77;;
39540;SDS011;25219;52.244;21.006;2022-12-10T16:18:35;39.50;;;18.40;;